sensor_id;sensor_type;location;lat;lon;timestamp;P1;durP1;ratioP1;P2;durP2;ratioP2
62572;SDS011;48626;51.678;5.806;2022-12-18T00:01:22;47.47;;;18.70;;
62572;SDS011;48626;51.678;5.806;2022-12-18T00:03:49;51.00;;;18.40;;
62572;SDS011;48626;51.678;5.806;2022-12-18T00:06:16;41.72;;;18.05;;
62572;SDS011;48626;51.678;5.806;2022-12-18T00:08:42;47.45;;;18.33;;
62572;SDS011;48626;51.678;5.806;2022-12-18T00:11:13;46.95;;;17.70;;
62572;SDS011;48626;51.678;5.806;2022-12-18T00:13:41;41.88;;;17.63;;
62572;SDS011;48626;51.678;5.806;2022-12-18T00:16:07;47.28;;;18.73;;
62572;SDS011;48626;51.678;5.806;2022-12-18T00:18:35;39.15;;;17.40;;
62572;SDS011;48626;51.678;5.806;2022-12-18T00:21:02;45.38;;;17.88;;
62572;SDS011;48626;51.678;5.806;2022-12-18T00:23:31;43.72;;;17.40;;
62572;SDS011;48626;51.678;5.806;2022-12-18T00:26:00;48.88;;;18.05;;
62572;SDS011;48626;51.678;5.806;2022-12-18T00:28:26;44.35;;;17.13;;
62572;SDS011;48626;51.678;5.806;2022-12-18T00:31:09;43.30;;;18.08;;
62572;SDS011;48626;51.678;5.806;2022-12-18T00:33:36;52.83;;;18.65;;
62572;SDS011;48626;51.678;5.806;2022-12-18T00:36:12;41.00;;;16.38;;
62572;SDS011;48626;51.678;5.806;2022-12-18T00:38:45;43.78;;;17.10;;
62572;SDS011;48626;51.678;5.806;2022-12-18T00:41:12;37.83;;;15.82;;
62572;SDS011;48626;51.678;5.806;2022-12-18T00:43:59;38.08;;;15.77;;
62572;SDS011;48626;51.678;5.806;2022-12-18T00:46:25;40.67;;;16.40;;
62572;SDS011;48626;51.678;5.806;2022-12-18T00:48:50;38.83;;;16.55;;
62572;SDS011;48626;51.678;5.806;2022-12-18T00:51:16;41.33;;;16.13;;
62572;SDS011;48626;51.678;5.806;2022-12-18T00:53:42;47.88;;;17.63;;
62572;SDS011;48626;51.678;5.806;2022-12-18T00:56:07;41.85;;;17.85;;
62572;SDS011;48626;51.678;5.806;2022-12-18T00:58:33;36.03;;;15.50;;
62572;SDS011;48626;51.678;5.806;2022-12-18T01:01:03;42.15;;;16.60;;
62572;SDS011;48626;51.678;5.806;2022-12-18T01:03:30;43.13;;;16.52;;
62572;SDS011;48626;51.678;5.806;2022-12-18T01:05:55;39.80;;;16.58;;
62572;SDS011;48626;51.678;5.806;2022-12-18T01:08:21;38.15;;;17.05;;
62572;SDS011;48626;51.678;5.806;2022-12-18T01:10:47;36.05;;;16.08;;
62572;SDS011;48626;51.678;5.806;2022-12-18T01:13:13;38.42;;;15.23;;
62572;SDS011;48626;51.678;5.806;2022-12-18T01:15:38;51.08;;;16.73;;
62572;SDS011;48626;51.678;5.806;2022-12-18T01:18:05;43.33;;;17.52;;
62572;SDS011;48626;51.678;5.806;2022-12-18T01:20:31;38.92;;;16.02;;
62572;SDS011;48626;51.678;5.806;2022-12-18T01:22:56;44.20;;;17.00;;
62572;SDS011;48626;51.678;5.806;2022-12-18T01:25:22;42.65;;;16.98;;
62572;SDS011;48626;51.678;5.806;2022-12-18T01:27:48;39.83;;;15.98;;
62572;SDS011;48626;51.678;5.806;2022-12-18T01:30:13;38.70;;;15.93;;
62572;SDS011;48626;51.678;5.806;2022-12-18T01:32:40;34.60;;;15.43;;
62572;SDS011;48626;51.678;5.806;2022-12-18T01:35:05;37.40;;;14.98;;
62572;SDS011;48626;51.678;5.806;2022-12-18T01:37:32;35.72;;;15.55;;
62572;SDS011;48626;51.678;5.806;2022-12-18T01:39:57;32.13;;;13.95;;
62572;SDS011;48626;51.678;5.806;2022-12-18T01:42:23;34.30;;;14.43;;
62572;SDS011;48626;51.678;5.806;2022-12-18T01:50:22;33.03;;;13.68;;
62572;SDS011;48626;51.678;5.806;2022-12-18T01:53:11;32.67;;;13.10;;
62572;SDS011;48626;51.678;5.806;2022-12-18T01:55:42;26.27;;;12.52;;
62572;SDS011;48626;51.678;5.806;2022-12-18T01:58:11;32.58;;;13.63;;
62572;SDS011;48626;51.678;5.806;2022-12-18T02:00:38;33.85;;;14.63;;
62572;SDS011;48626;51.678;5.806;2022-12-18T02:03:04;34.55;;;13.57;;
62572;SDS011;48626;51.678;5.806;2022-12-18T02:05:34;33.55;;;13.43;;
62572;SDS011;48626;51.678;5.806;2022-12-18T02:11:00;31.85;;;13.82;;
62572;SDS011;48626;51.678;5.806;2022-12-18T02:16:29;30.95;;;14.35;;
62572;SDS011;48626;51.678;5.806;2022-12-18T02:19:06;32.13;;;12.50;;
62572;SDS011;48626;51.678;5.806;2022-12-18T02:24:33;35.72;;;13.02;;
62572;SDS011;48626;51.678;5.806;2022-12-18T02:27:07;39.88;;;12.95;;
62572;SDS011;48626;51.678;5.806;2022-12-18T02:29:44;30.17;;;11.60;;
62572;SDS011;48626;51.678;5.806;2022-12-18T02:32:26;33.08;;;13.18;;
62572;SDS011;48626;51.678;5.806;2022-12-18T02:34:55;33.92;;;13.82;;
62572;SDS011;48626;51.678;5.806;2022-12-18T02:37:22;32.75;;;12.65;;
62572;SDS011;48626;51.678;5.806;2022-12-18T02:39:50;26.63;;;12.80;;
62572;SDS011;48626;51.678;5.806;2022-12-18T02:42:18;28.08;;;11.98;;
62572;SDS011;48626;51.678;5.806;2022-12-18T02:44:45;29.17;;;13.68;;
62572;SDS011;48626;51.678;5.806;2022-12-18T02:47:13;23.17;;;12.25;;
62572;SDS011;48626;51.678;5.806;2022-12-18T02:58:14;28.25;;;11.93;;
62572;SDS011;48626;51.678;5.806;2022-12-18T03:06:12;24.52;;;11.18;;
62572;SDS011;48626;51.678;5.806;2022-12-18T03:08:45;24.08;;;11.65;;
62572;SDS011;48626;51.678;5.806;2022-12-18T03:11:14;26.15;;;10.88;;
62572;SDS011;48626;51.678;5.806;2022-12-18T03:13:42;24.25;;;11.48;;
62572;SDS011;48626;51.678;5.806;2022-12-18T03:16:12;28.70;;;11.82;;
62572;SDS011;48626;51.678;5.806;2022-12-18T03:18:52;27.35;;;12.18;;
62572;SDS011;48626;51.678;5.806;2022-12-18T03:21:26;32.38;;;12.05;;
62572;SDS011;48626;51.678;5.806;2022-12-18T03:23:54;21.90;;;11.10;;
62572;SDS011;48626;51.678;5.806;2022-12-18T03:26:22;29.88;;;11.70;;
62572;SDS011;48626;51.678;5.806;2022-12-18T03:28:53;21.45;;;11.23;;
62572;SDS011;48626;51.678;5.806;2022-12-18T03:31:35;27.15;;;11.82;;
62572;SDS011;48626;51.678;5.806;2022-12-18T03:34:05;25.90;;;10.93;;
62572;SDS011;48626;51.678;5.806;2022-12-18T03:36:38;22.83;;;10.68;;
62572;SDS011;48626;51.678;5.806;2022-12-18T03:39:03;33.40;;;11.52;;
62572;SDS011;48626;51.678;5.806;2022-12-18T03:41:31;18.83;;;10.73;;
62572;SDS011;48626;51.678;5.806;2022-12-18T03:44:14;21.92;;;10.98;;
62572;SDS011;48626;51.678;5.806;2022-12-18T03:52:46;22.75;;;10.63;;
62572;SDS011;48626;51.678;5.806;2022-12-18T03:55:18;28.40;;;11.20;;
62572;SDS011;48626;51.678;5.806;2022-12-18T03:57:46;22.30;;;10.38;;
62572;SDS011;48626;51.678;5.806;2022-12-18T04:00:14;22.17;;;9.75;;
62572;SDS011;48626;51.678;5.806;2022-12-18T04:02:47;21.73;;;10.15;;
62572;SDS011;48626;51.678;5.806;2022-12-18T04:05:16;22.02;;;10.50;;
62572;SDS011;48626;51.678;5.806;2022-12-18T04:07:44;22.95;;;10.18;;
62572;SDS011;48626;51.678;5.806;2022-12-18T04:10:13;20.52;;;9.88;;
62572;SDS011;48626;51.678;5.806;2022-12-18T04:12:40;25.33;;;11.00;;
62572;SDS011;48626;51.678;5.806;2022-12-18T04:15:07;22.65;;;10.82;;
62572;SDS011;48626;51.678;5.806;2022-12-18T04:17:33;19.70;;;10.50;;
62572;SDS011;48626;51.678;5.806;2022-12-18T04:19:59;22.77;;;9.82;;
62572;SDS011;48626;51.678;5.806;2022-12-18T04:22:25;20.23;;;10.02;;
62572;SDS011;48626;51.678;5.806;2022-12-18T04:24:50;24.17;;;10.32;;
62572;SDS011;48626;51.678;5.806;2022-12-18T04:27:16;23.10;;;9.82;;
62572;SDS011;48626;51.678;5.806;2022-12-18T04:29:42;20.23;;;9.85;;
62572;SDS011;48626;51.678;5.806;2022-12-18T04:32:07;20.80;;;9.88;;
62572;SDS011;48626;51.678;5.806;2022-12-18T04:34:33;21.02;;;10.32;;
62572;SDS011;48626;51.678;5.806;2022-12-18T04:36:59;24.17;;;9.80;;
62572;SDS011;48626;51.678;5.806;2022-12-18T04:39:24;22.33;;;10.15;;
62572;SDS011;48626;51.678;5.806;2022-12-18T04:41:50;22.25;;;9.68;;
62572;SDS011;48626;51.678;5.806;2022-12-18T04:44:16;24.98;;;9.68;;
62572;SDS011;48626;51.678;5.806;2022-12-18T04:46:41;24.70;;;9.95;;
62572;SDS011;48626;51.678;5.806;2022-12-18T04:49:07;21.45;;;9.82;;
62572;SDS011;48626;51.678;5.806;2022-12-18T04:51:33;22.55;;;9.98;;
62572;SDS011;48626;51.678;5.806;2022-12-18T04:53:58;24.25;;;9.43;;
62572;SDS011;48626;51.678;5.806;2022-12-18T04:56:24;22.45;;;10.48;;
62572;SDS011;48626;51.678;5.806;2022-12-18T04:58:49;26.38;;;9.68;;
62572;SDS011;48626;51.678;5.806;2022-12-18T05:01:16;21.92;;;9.15;;
62572;SDS011;48626;51.678;5.806;2022-12-18T05:03:42;18.33;;;9.02;;
62572;SDS011;48626;51.678;5.806;2022-12-18T05:06:08;18.77;;;8.30;;
62572;SDS011;48626;51.678;5.806;2022-12-18T05:08:34;20.23;;;8.93;;
62572;SDS011;48626;51.678;5.806;2022-12-18T05:11:01;16.02;;;9.45;;
62572;SDS011;48626;51.678;5.806;2022-12-18T05:13:31;16.90;;;8.82;;
62572;SDS011;48626;51.678;5.806;2022-12-18T05:15:57;23.42;;;9.82;;
62572;SDS011;48626;51.678;5.806;2022-12-18T05:18:23;23.52;;;9.45;;
62572;SDS011;48626;51.678;5.806;2022-12-18T05:20:50;19.52;;;8.88;;
62572;SDS011;48626;51.678;5.806;2022-12-18T05:23:16;19.48;;;9.20;;
62572;SDS011;48626;51.678;5.806;2022-12-18T05:25:42;21.38;;;9.07;;
62572;SDS011;48626;51.678;5.806;2022-12-18T05:28:07;19.50;;;9.75;;
62572;SDS011;48626;51.678;5.806;2022-12-18T05:30:33;22.00;;;9.30;;
62572;SDS011;48626;51.678;5.806;2022-12-18T05:32:59;25.40;;;9.93;;
62572;SDS011;48626;51.678;5.806;2022-12-18T05:35:24;18.35;;;8.70;;
62572;SDS011;48626;51.678;5.806;2022-12-18T05:37:50;19.45;;;9.75;;
62572;SDS011;48626;51.678;5.806;2022-12-18T05:40:15;20.83;;;9.38;;
62572;SDS011;48626;51.678;5.806;2022-12-18T05:42:41;22.38;;;10.18;;
62572;SDS011;48626;51.678;5.806;2022-12-18T05:45:07;18.73;;;9.45;;
62572;SDS011;48626;51.678;5.806;2022-12-18T05:47:33;19.88;;;9.65;;
62572;SDS011;48626;51.678;5.806;2022-12-18T05:49:58;22.65;;;9.82;;
62572;SDS011;48626;51.678;5.806;2022-12-18T05:52:24;20.27;;;9.65;;
62572;SDS011;48626;51.678;5.806;2022-12-18T05:54:50;21.15;;;9.18;;
62572;SDS011;48626;51.678;5.806;2022-12-18T05:57:15;26.60;;;10.60;;
62572;SDS011;48626;51.678;5.806;2022-12-18T05:59:41;17.65;;;9.55;;
62572;SDS011;48626;51.678;5.806;2022-12-18T06:02:06;21.17;;;10.00;;
62572;SDS011;48626;51.678;5.806;2022-12-18T06:04:32;15.52;;;8.85;;
62572;SDS011;48626;51.678;5.806;2022-12-18T06:06:58;18.67;;;9.85;;
62572;SDS011;48626;51.678;5.806;2022-12-18T06:09:24;20.58;;;10.02;;
62572;SDS011;48626;51.678;5.806;2022-12-18T06:11:50;20.52;;;10.07;;
62572;SDS011;48626;51.678;5.806;2022-12-18T06:14:17;19.23;;;9.77;;
62572;SDS011;48626;51.678;5.806;2022-12-18T06:16:42;23.95;;;10.07;;
62572;SDS011;48626;51.678;5.806;2022-12-18T06:19:13;21.13;;;9.48;;
62572;SDS011;48626;51.678;5.806;2022-12-18T06:21:40;21.42;;;9.68;;
62572;SDS011;48626;51.678;5.806;2022-12-18T06:24:05;18.23;;;9.00;;
62572;SDS011;48626;51.678;5.806;2022-12-18T06:26:31;22.20;;;10.18;;
62572;SDS011;48626;51.678;5.806;2022-12-18T06:28:57;18.33;;;9.40;;
62572;SDS011;48626;51.678;5.806;2022-12-18T06:31:23;19.88;;;9.20;;
62572;SDS011;48626;51.678;5.806;2022-12-18T06:33:49;20.10;;;10.20;;
62572;SDS011;48626;51.678;5.806;2022-12-18T06:36:15;24.08;;;9.75;;
62572;SDS011;48626;51.678;5.806;2022-12-18T06:38:42;22.45;;;10.18;;
62572;SDS011;48626;51.678;5.806;2022-12-18T06:41:09;23.13;;;10.43;;
62572;SDS011;48626;51.678;5.806;2022-12-18T06:43:39;23.83;;;9.63;;
62572;SDS011;48626;51.678;5.806;2022-12-18T06:46:05;17.15;;;8.52;;
62572;SDS011;48626;51.678;5.806;2022-12-18T06:48:31;24.52;;;10.93;;
62572;SDS011;48626;51.678;5.806;2022-12-18T06:50:58;25.55;;;9.85;;
62572;SDS011;48626;51.678;5.806;2022-12-18T06:53:24;19.77;;;9.13;;
62572;SDS011;48626;51.678;5.806;2022-12-18T06:55:50;23.60;;;10.13;;
62572;SDS011;48626;51.678;5.806;2022-12-18T06:58:16;22.98;;;9.88;;
62572;SDS011;48626;51.678;5.806;2022-12-18T07:00:42;24.67;;;10.73;;
62572;SDS011;48626;51.678;5.806;2022-12-18T07:03:07;26.52;;;11.18;;
62572;SDS011;48626;51.678;5.806;2022-12-18T07:05:33;31.15;;;13.45;;
62572;SDS011;48626;51.678;5.806;2022-12-18T07:07:59;25.10;;;11.55;;
62572;SDS011;48626;51.678;5.806;2022-12-18T07:10:25;21.02;;;11.13;;
62572;SDS011;48626;51.678;5.806;2022-12-18T07:12:51;28.92;;;12.40;;
62572;SDS011;48626;51.678;5.806;2022-12-18T07:15:16;26.90;;;11.80;;
62572;SDS011;48626;51.678;5.806;2022-12-18T07:17:42;28.58;;;11.68;;
62572;SDS011;48626;51.678;5.806;2022-12-18T07:20:08;27.20;;;12.02;;
62572;SDS011;48626;51.678;5.806;2022-12-18T07:22:34;29.48;;;12.20;;
62572;SDS011;48626;51.678;5.806;2022-12-18T07:24:59;28.98;;;11.30;;
62572;SDS011;48626;51.678;5.806;2022-12-18T07:27:25;18.58;;;9.75;;
62572;SDS011;48626;51.678;5.806;2022-12-18T07:29:51;18.13;;;9.55;;
62572;SDS011;48626;51.678;5.806;2022-12-18T07:32:16;21.83;;;10.90;;
62572;SDS011;48626;51.678;5.806;2022-12-18T07:34:42;22.92;;;10.25;;
62572;SDS011;48626;51.678;5.806;2022-12-18T07:37:07;23.25;;;10.48;;
62572;SDS011;48626;51.678;5.806;2022-12-18T07:39:33;21.45;;;10.82;;
62572;SDS011;48626;51.678;5.806;2022-12-18T07:41:59;25.40;;;11.43;;
62572;SDS011;48626;51.678;5.806;2022-12-18T07:44:43;23.10;;;10.82;;
62572;SDS011;48626;51.678;5.806;2022-12-18T07:47:08;26.02;;;10.77;;
62572;SDS011;48626;51.678;5.806;2022-12-18T07:49:34;18.02;;;9.75;;
62572;SDS011;48626;51.678;5.806;2022-12-18T07:52:00;24.73;;;10.60;;
62572;SDS011;48626;51.678;5.806;2022-12-18T07:54:26;18.17;;;9.50;;
62572;SDS011;48626;51.678;5.806;2022-12-18T07:56:52;21.95;;;10.25;;
62572;SDS011;48626;51.678;5.806;2022-12-18T07:59:18;20.52;;;10.30;;
62572;SDS011;48626;51.678;5.806;2022-12-18T08:01:43;37.42;;;11.55;;
62572;SDS011;48626;51.678;5.806;2022-12-18T08:04:09;25.70;;;11.20;;
62572;SDS011;48626;51.678;5.806;2022-12-18T08:06:35;22.27;;;10.00;;
62572;SDS011;48626;51.678;5.806;2022-12-18T08:09:01;19.00;;;10.30;;
62572;SDS011;48626;51.678;5.806;2022-12-18T08:11:28;23.73;;;10.65;;
62572;SDS011;48626;51.678;5.806;2022-12-18T08:13:54;21.25;;;9.90;;
62572;SDS011;48626;51.678;5.806;2022-12-18T08:16:20;19.67;;;9.90;;
62572;SDS011;48626;51.678;5.806;2022-12-18T08:18:47;22.98;;;10.95;;
62572;SDS011;48626;51.678;5.806;2022-12-18T08:21:14;25.50;;;12.27;;
62572;SDS011;48626;51.678;5.806;2022-12-18T08:23:42;24.05;;;11.45;;
62572;SDS011;48626;51.678;5.806;2022-12-18T08:26:07;20.42;;;9.75;;
62572;SDS011;48626;51.678;5.806;2022-12-18T08:28:34;24.80;;;11.02;;
62572;SDS011;48626;51.678;5.806;2022-12-18T08:31:00;26.15;;;10.73;;
62572;SDS011;48626;51.678;5.806;2022-12-18T08:33:25;20.95;;;10.45;;
62572;SDS011;48626;51.678;5.806;2022-12-18T08:35:51;27.20;;;11.88;;
62572;SDS011;48626;51.678;5.806;2022-12-18T08:38:17;23.35;;;11.63;;
62572;SDS011;48626;51.678;5.806;2022-12-18T08:40:43;22.27;;;10.15;;
62572;SDS011;48626;51.678;5.806;2022-12-18T08:43:09;22.60;;;11.15;;
62572;SDS011;48626;51.678;5.806;2022-12-18T08:45:54;29.67;;;13.18;;
62572;SDS011;48626;51.678;5.806;2022-12-18T08:48:20;21.90;;;10.20;;
62572;SDS011;48626;51.678;5.806;2022-12-18T08:50:55;24.83;;;12.23;;
62572;SDS011;48626;51.678;5.806;2022-12-18T08:53:22;24.48;;;10.82;;
62572;SDS011;48626;51.678;5.806;2022-12-18T08:55:48;22.02;;;11.40;;
62572;SDS011;48626;51.678;5.806;2022-12-18T08:58:13;25.80;;;11.32;;
62572;SDS011;48626;51.678;5.806;2022-12-18T09:00:39;22.23;;;11.43;;
62572;SDS011;48626;51.678;5.806;2022-12-18T09:03:04;24.60;;;10.20;;
62572;SDS011;48626;51.678;5.806;2022-12-18T09:05:30;25.73;;;11.35;;
62572;SDS011;48626;51.678;5.806;2022-12-18T09:07:56;28.60;;;12.43;;
62572;SDS011;48626;51.678;5.806;2022-12-18T09:10:21;26.55;;;10.77;;
62572;SDS011;48626;51.678;5.806;2022-12-18T09:12:47;21.08;;;10.77;;
62572;SDS011;48626;51.678;5.806;2022-12-18T09:15:12;23.42;;;10.75;;
62572;SDS011;48626;51.678;5.806;2022-12-18T09:17:38;26.48;;;11.57;;
62572;SDS011;48626;51.678;5.806;2022-12-18T09:20:04;24.83;;;10.43;;
62572;SDS011;48626;51.678;5.806;2022-12-18T09:22:30;25.42;;;10.90;;
62572;SDS011;48626;51.678;5.806;2022-12-18T09:24:56;22.33;;;11.07;;
62572;SDS011;48626;51.678;5.806;2022-12-18T09:27:21;24.83;;;11.38;;
62572;SDS011;48626;51.678;5.806;2022-12-18T09:29:47;24.77;;;11.88;;
62572;SDS011;48626;51.678;5.806;2022-12-18T09:32:12;24.05;;;11.65;;
62572;SDS011;48626;51.678;5.806;2022-12-18T09:34:38;21.75;;;10.60;;
62572;SDS011;48626;51.678;5.806;2022-12-18T09:37:04;23.77;;;10.65;;
62572;SDS011;48626;51.678;5.806;2022-12-18T09:39:30;22.50;;;11.00;;
62572;SDS011;48626;51.678;5.806;2022-12-18T09:41:57;23.27;;;11.75;;
62572;SDS011;48626;51.678;5.806;2022-12-18T09:44:31;26.20;;;11.90;;
62572;SDS011;48626;51.678;5.806;2022-12-18T09:47:13;24.52;;;11.75;;
62572;SDS011;48626;51.678;5.806;2022-12-18T09:49:54;22.88;;;11.02;;
62572;SDS011;48626;51.678;5.806;2022-12-18T09:55:00;25.15;;;11.85;;
62572;SDS011;48626;51.678;5.806;2022-12-18T09:57:39;25.85;;;11.73;;
62572;SDS011;48626;51.678;5.806;2022-12-18T10:00:18;25.25;;;11.63;;
62572;SDS011;48626;51.678;5.806;2022-12-18T10:02:46;28.33;;;12.13;;
62572;SDS011;48626;51.678;5.806;2022-12-18T10:05:35;22.42;;;12.05;;
62572;SDS011;48626;51.678;5.806;2022-12-18T10:10:51;23.42;;;12.77;;
62572;SDS011;48626;51.678;5.806;2022-12-18T10:13:23;29.13;;;11.98;;
62572;SDS011;48626;51.678;5.806;2022-12-18T10:16:23;25.20;;;10.63;;
62572;SDS011;48626;51.678;5.806;2022-12-18T10:25:00;27.48;;;11.90;;
62572;SDS011;48626;51.678;5.806;2022-12-18T10:27:51;25.27;;;10.45;;
62572;SDS011;48626;51.678;5.806;2022-12-18T10:30:23;22.42;;;11.40;;
62572;SDS011;48626;51.678;5.806;2022-12-18T10:32:49;26.73;;;12.50;;
62572;SDS011;48626;51.678;5.806;2022-12-18T10:35:23;18.13;;;9.80;;
62572;SDS011;48626;51.678;5.806;2022-12-18T10:41:08;23.50;;;11.30;;
62572;SDS011;48626;51.678;5.806;2022-12-18T10:44:25;25.73;;;11.90;;
62572;SDS011;48626;51.678;5.806;2022-12-18T10:46:52;22.20;;;11.55;;
62572;SDS011;48626;51.678;5.806;2022-12-18T10:49:23;31.60;;;13.18;;
62572;SDS011;48626;51.678;5.806;2022-12-18T10:51:52;34.35;;;13.98;;
62572;SDS011;48626;51.678;5.806;2022-12-18T10:54:39;20.33;;;11.88;;
62572;SDS011;48626;51.678;5.806;2022-12-18T10:57:27;27.13;;;11.98;;
62572;SDS011;48626;51.678;5.806;2022-12-18T10:59:57;22.00;;;11.55;;
62572;SDS011;48626;51.678;5.806;2022-12-18T11:02:36;27.20;;;12.33;;
62572;SDS011;48626;51.678;5.806;2022-12-18T11:05:05;21.95;;;11.85;;
62572;SDS011;48626;51.678;5.806;2022-12-18T11:07:55;23.15;;;11.45;;
62572;SDS011;48626;51.678;5.806;2022-12-18T11:10:25;20.55;;;11.23;;
62572;SDS011;48626;51.678;5.806;2022-12-18T11:15:47;26.02;;;11.90;;
62572;SDS011;48626;51.678;5.806;2022-12-18T11:18:33;27.38;;;12.13;;
62572;SDS011;48626;51.678;5.806;2022-12-18T11:23:33;25.75;;;12.45;;
62572;SDS011;48626;51.678;5.806;2022-12-18T11:26:04;26.13;;;12.75;;
62572;SDS011;48626;51.678;5.806;2022-12-18T11:36:22;22.35;;;11.15;;
62572;SDS011;48626;51.678;5.806;2022-12-18T11:38:49;24.63;;;12.43;;
62572;SDS011;48626;51.678;5.806;2022-12-18T11:44:24;24.10;;;11.80;;
62572;SDS011;48626;51.678;5.806;2022-12-18T11:46:57;26.10;;;12.10;;
62572;SDS011;48626;51.678;5.806;2022-12-18T11:49:34;24.98;;;12.52;;
62572;SDS011;48626;51.678;5.806;2022-12-18T11:54:29;26.27;;;13.07;;
62572;SDS011;48626;51.678;5.806;2022-12-18T11:56:56;27.52;;;12.38;;
62572;SDS011;48626;51.678;5.806;2022-12-18T12:02:25;30.88;;;12.82;;
62572;SDS011;48626;51.678;5.806;2022-12-18T12:23:48;24.50;;;12.35;;
62572;SDS011;48626;51.678;5.806;2022-12-18T12:29:05;27.67;;;12.27;;
62572;SDS011;48626;51.678;5.806;2022-12-18T12:31:51;21.98;;;11.20;;
62572;SDS011;48626;51.678;5.806;2022-12-18T12:37:58;26.00;;;11.50;;
62572;SDS011;48626;51.678;5.806;2022-12-18T12:40:35;25.35;;;12.13;;
62572;SDS011;48626;51.678;5.806;2022-12-18T12:43:10;23.83;;;12.93;;
62572;SDS011;48626;51.678;5.806;2022-12-18T12:45:50;25.83;;;13.38;;
62572;SDS011;48626;51.678;5.806;2022-12-18T12:51:32;24.45;;;11.73;;
62572;SDS011;48626;51.678;5.806;2022-12-18T12:54:05;24.50;;;12.15;;
62572;SDS011;48626;51.678;5.806;2022-12-18T12:59:16;25.63;;;12.38;;
62572;SDS011;48626;51.678;5.806;2022-12-18T13:01:53;24.80;;;12.10;;
62572;SDS011;48626;51.678;5.806;2022-12-18T13:04:40;28.02;;;12.25;;
62572;SDS011;48626;51.678;5.806;2022-12-18T13:07:17;23.02;;;12.13;;
62572;SDS011;48626;51.678;5.806;2022-12-18T13:12:37;23.70;;;12.68;;
62572;SDS011;48626;51.678;5.806;2022-12-18T13:15:27;25.33;;;12.10;;
62572;SDS011;48626;51.678;5.806;2022-12-18T13:18:04;27.90;;;13.15;;
62572;SDS011;48626;51.678;5.806;2022-12-18T13:20:44;29.95;;;13.77;;
62572;SDS011;48626;51.678;5.806;2022-12-18T13:23:26;26.00;;;12.73;;
62572;SDS011;48626;51.678;5.806;2022-12-18T13:28:52;25.08;;;12.10;;
62572;SDS011;48626;51.678;5.806;2022-12-18T13:36:48;22.00;;;12.20;;
62572;SDS011;48626;51.678;5.806;2022-12-18T13:41:43;22.33;;;11.93;;
62572;SDS011;48626;51.678;5.806;2022-12-18T13:47:05;29.25;;;13.25;;
62572;SDS011;48626;51.678;5.806;2022-12-18T13:49:49;28.45;;;12.30;;
62572;SDS011;48626;51.678;5.806;2022-12-18T13:52:17;23.92;;;11.80;;
62572;SDS011;48626;51.678;5.806;2022-12-18T13:54:55;28.08;;;13.15;;
62572;SDS011;48626;51.678;5.806;2022-12-18T13:57:32;27.73;;;12.75;;
62572;SDS011;48626;51.678;5.806;2022-12-18T14:02:47;21.13;;;11.77;;
62572;SDS011;48626;51.678;5.806;2022-12-18T14:05:24;25.63;;;12.52;;
62572;SDS011;48626;51.678;5.806;2022-12-18T14:07:53;22.15;;;11.95;;
62572;SDS011;48626;51.678;5.806;2022-12-18T14:10:19;26.88;;;12.55;;
62572;SDS011;48626;51.678;5.806;2022-12-18T14:12:47;24.60;;;11.75;;
62572;SDS011;48626;51.678;5.806;2022-12-18T14:17:52;29.27;;;11.93;;
62572;SDS011;48626;51.678;5.806;2022-12-18T14:20:48;29.23;;;11.57;;
62572;SDS011;48626;51.678;5.806;2022-12-18T14:26:21;22.88;;;12.38;;
62572;SDS011;48626;51.678;5.806;2022-12-18T14:28:54;23.02;;;11.65;;
62572;SDS011;48626;51.678;5.806;2022-12-18T14:31:24;26.48;;;12.68;;
62572;SDS011;48626;51.678;5.806;2022-12-18T14:33:51;24.65;;;12.07;;
62572;SDS011;48626;51.678;5.806;2022-12-18T14:36:18;22.33;;;11.73;;
62572;SDS011;48626;51.678;5.806;2022-12-18T14:38:58;26.80;;;13.05;;
62572;SDS011;48626;51.678;5.806;2022-12-18T14:41:24;27.50;;;12.45;;
62572;SDS011;48626;51.678;5.806;2022-12-18T14:43:51;27.02;;;13.02;;
62572;SDS011;48626;51.678;5.806;2022-12-18T14:46:36;23.75;;;13.18;;
62572;SDS011;48626;51.678;5.806;2022-12-18T14:49:14;26.63;;;11.98;;
62572;SDS011;48626;51.678;5.806;2022-12-18T14:51:47;25.15;;;12.75;;
62572;SDS011;48626;51.678;5.806;2022-12-18T14:54:16;25.85;;;13.18;;
62572;SDS011;48626;51.678;5.806;2022-12-18T14:56:44;23.50;;;11.63;;
62572;SDS011;48626;51.678;5.806;2022-12-18T14:59:22;27.35;;;12.90;;
62572;SDS011;48626;51.678;5.806;2022-12-18T15:04:34;26.25;;;13.07;;
62572;SDS011;48626;51.678;5.806;2022-12-18T15:07:13;28.05;;;12.98;;
62572;SDS011;48626;51.678;5.806;2022-12-18T15:09:40;24.25;;;11.35;;
62572;SDS011;48626;51.678;5.806;2022-12-18T15:12:26;25.10;;;11.55;;
62572;SDS011;48626;51.678;5.806;2022-12-18T15:14:59;20.92;;;11.65;;
62572;SDS011;48626;51.678;5.806;2022-12-18T15:17:25;22.88;;;12.00;;
62572;SDS011;48626;51.678;5.806;2022-12-18T15:19:52;22.65;;;12.30;;
62572;SDS011;48626;51.678;5.806;2022-12-18T15:24:53;23.70;;;12.67;;
62572;SDS011;48626;51.678;5.806;2022-12-18T15:27:31;24.75;;;11.95;;
62572;SDS011;48626;51.678;5.806;2022-12-18T15:30:30;28.80;;;14.05;;
62572;SDS011;48626;51.678;5.806;2022-12-18T15:32:50;23.55;;;12.05;;
62572;SDS011;48626;51.678;5.806;2022-12-18T15:35:18;28.08;;;12.93;;
62572;SDS011;48626;51.678;5.806;2022-12-18T15:37:46;27.80;;;12.60;;
62572;SDS011;48626;51.678;5.806;2022-12-18T15:40:16;26.52;;;13.48;;
62572;SDS011;48626;51.678;5.806;2022-12-18T15:42:46;27.60;;;13.25;;
62572;SDS011;48626;51.678;5.806;2022-12-18T15:45:31;23.13;;;12.60;;
62572;SDS011;48626;51.678;5.806;2022-12-18T15:47:57;27.80;;;13.15;;
62572;SDS011;48626;51.678;5.806;2022-12-18T15:50:24;26.33;;;13.18;;
62572;SDS011;48626;51.678;5.806;2022-12-18T15:52:51;26.27;;;14.00;;
62572;SDS011;48626;51.678;5.806;2022-12-18T15:55:20;26.37;;;13.50;;
62572;SDS011;48626;51.678;5.806;2022-12-18T15:58:25;25.38;;;12.43;;
62572;SDS011;48626;51.678;5.806;2022-12-18T16:00:51;24.17;;;13.00;;
62572;SDS011;48626;51.678;5.806;2022-12-18T16:03:17;27.10;;;11.98;;
62572;SDS011;48626;51.678;5.806;2022-12-18T16:05:43;26.65;;;13.25;;
62572;SDS011;48626;51.678;5.806;2022-12-18T16:08:08;29.55;;;13.52;;
62572;SDS011;48626;51.678;5.806;2022-12-18T16:10:34;28.60;;;13.65;;
62572;SDS011;48626;51.678;5.806;2022-12-18T16:13:00;25.23;;;13.32;;
62572;SDS011;48626;51.678;5.806;2022-12-18T16:15:25;25.88;;;12.90;;
62572;SDS011;48626;51.678;5.806;2022-12-18T16:17:51;28.30;;;14.25;;
62572;SDS011;48626;51.678;5.806;2022-12-18T16:20:18;27.67;;;14.07;;
62572;SDS011;48626;51.678;5.806;2022-12-18T16:22:45;26.45;;;12.68;;
62572;SDS011;48626;51.678;5.806;2022-12-18T16:25:25;26.90;;;14.15;;
62572;SDS011;48626;51.678;5.806;2022-12-18T16:27:52;29.52;;;13.98;;
62572;SDS011;48626;51.678;5.806;2022-12-18T16:30:27;29.50;;;13.77;;
62572;SDS011;48626;51.678;5.806;2022-12-18T16:32:55;28.25;;;14.93;;
62572;SDS011;48626;51.678;5.806;2022-12-18T16:35:21;29.55;;;13.05;;
62572;SDS011;48626;51.678;5.806;2022-12-18T16:37:48;29.63;;;13.95;;
62572;SDS011;48626;51.678;5.806;2022-12-18T16:40:15;25.27;;;12.65;;
62572;SDS011;48626;51.678;5.806;2022-12-18T16:42:42;24.33;;;13.55;;
62572;SDS011;48626;51.678;5.806;2022-12-18T16:45:10;29.08;;;14.10;;
62572;SDS011;48626;51.678;5.806;2022-12-18T16:47:39;27.70;;;14.23;;
62572;SDS011;48626;51.678;5.806;2022-12-18T16:50:05;29.10;;;13.60;;